sensor_id;sensor_type;location;lat;lon;timestamp;P1;P2;P0
33264;PMS5003;31404;53.974;-1.086;2022-08-21T00:00:33;9;7;
33264;PMS5003;31404;53.974;-1.086;2022-08-21T00:05:36;5;5;
33264;PMS5003;31404;53.974;-1.086;2022-08-21T00:10:34;9;9;
33264;PMS5003;31404;53.974;-1.086;2022-08-21T00:15:35;6;5;
33264;PMS5003;31404;53.974;-1.086;2022-08-21T00:20:35;6;6;
33264;PMS5003;31404;53.974;-1.086;2022-08-21T00:25:34;8;5;
33264;PMS5003;31404;53.974;-1.086;2022-08-21T00:30:34;7;4;
33264;PMS5003;31404;53.974;-1.086;2022-08-21T00:35:35;8;5;
33264;PMS5003;31404;53.974;-1.086;2022-08-21T00:40:36;8;8;
33264;PMS5003;31404;53.974;-1.086;2022-08-21T00:45:34;6;5;
33264;PMS5003;31404;53.974;-1.086;2022-08-21T00:50:34;5;5;
33264;PMS5003;31404;53.974;-1.086;2022-08-21T00:55:34;5;4;
33264;PMS5003;31404;53.974;-1.086;2022-08-21T01:00:35;5;5;
33264;PMS5003;31404;53.974;-1.086;2022-08-21T01:05:35;3;3;
33264;PMS5003;31404;53.974;-1.086;2022-08-21T01:10:34;6;5;
33264;PMS5003;31404;53.974;-1.086;2022-08-21T01:15:35;4;4;
33264;PMS5003;31404;53.974;-1.086;2022-08-21T01:20:34;5;5;
33264;PMS5003;31404;53.974;-1.086;2022-08-21T01:25:34;4;4;
33264;PMS5003;31404;53.974;-1.086;2022-08-21T01:30:35;4;4;
33264;PMS5003;31404;53.974;-1.086;2022-08-21T01:35:34;8;5;
33264;PMS5003;31404;53.974;-1.086;2022-08-21T01:40:34;3;3;
33264;PMS5003;31404;53.974;-1.086;2022-08-21T01:45:34;3;3;
33264;PMS5003;31404;53.974;-1.086;2022-08-21T01:50:34;3;3;
33264;PMS5003;31404;53.974;-1.086;2022-08-21T01:55:34;5;5;
33264;PMS5003;31404;53.974;-1.086;2022-08-21T02:00:34;2;2;
33264;PMS5003;31404;53.974;-1.086;2022-08-21T02:05:34;4;4;
33264;PMS5003;31404;53.974;-1.086;2022-08-21T02:10:34;5;5;
33264;PMS5003;31404;53.974;-1.086;2022-08-21T02:15:35;8;5;
33264;PMS5003;31404;53.974;-1.086;2022-08-21T02:20:35;8;4;
33264;PMS5003;31404;53.974;-1.086;2022-08-21T02:25:34;5;5;
33264;PMS5003;31404;53.974;-1.086;2022-08-21T02:30:35;7;5;
33264;PMS5003;31404;53.974;-1.086;2022-08-21T02:35:34;6;6;
33264;PMS5003;31404;53.974;-1.086;2022-08-21T02:40:35;5;3;
33264;PMS5003;31404;53.974;-1.086;2022-08-21T02:45:34;8;5;
33264;PMS5003;31404;53.974;-1.086;2022-08-21T02:50:35;7;6;
33264;PMS5003;31404;53.974;-1.086;2022-08-21T02:55:35;4;4;
33264;PMS5003;31404;53.974;-1.086;2022-08-21T03:00:34;7;4;
33264;PMS5003;31404;53.974;-1.086;2022-08-21T03:05:34;7;5;
33264;PMS5003;31404;53.974;-1.086;2022-08-21T03:10:33;8;7;
33264;PMS5003;31404;53.974;-1.086;2022-08-21T03:15:34;8;5;
33264;PMS5003;31404;53.974;-1.086;2022-08-21T03:20:35;12;12;
33264;PMS5003;31404;53.974;-1.086;2022-08-21T03:25:34;16;15;
33264;PMS5003;31404;53.974;-1.086;2022-08-21T03:30:33;17;15;
33264;PMS5003;31404;53.974;-1.086;2022-08-21T03:35:34;15;14;
33264;PMS5003;31404;53.974;-1.086;2022-08-21T03:40:33;11;11;
33264;PMS5003;31404;53.974;-1.086;2022-08-21T03:45:33;15;15;
33264;PMS5003;31404;53.974;-1.086;2022-08-21T03:50:35;14;12;
33264;PMS5003;31404;53.974;-1.086;2022-08-21T03:55:34;17;12;
33264;PMS5003;31404;53.974;-1.086;2022-08-21T04:00:34;17;14;
33264;PMS5003;31404;53.974;-1.086;2022-08-21T04:05:34;6;6;
33264;PMS5003;31404;53.974;-1.086;2022-08-21T04:10:35;10;10;
33264;PMS5003;31404;53.974;-1.086;2022-08-21T04:15:35;13;11;
33264;PMS5003;31404;53.974;-1.086;2022-08-21T04:20:34;13;10;
33264;PMS5003;31404;53.974;-1.086;2022-08-21T04:25:34;7;7;
33264;PMS5003;31404;53.974;-1.086;2022-08-21T04:30:34;8;7;
33264;PMS5003;31404;53.974;-1.086;2022-08-21T04:35:34;9;7;
33264;PMS5003;31404;53.974;-1.086;2022-08-21T04:40:34;6;5;
33264;PMS5003;31404;53.974;-1.086;2022-08-21T04:45:35;8;7;
33264;PMS5003;31404;53.974;-1.086;2022-08-21T04:50:36;8;7;
33264;PMS5003;31404;53.974;-1.086;2022-08-21T04:55:34;8;8;
33264;PMS5003;31404;53.974;-1.086;2022-08-21T05:00:34;8;6;
33264;PMS5003;31404;53.974;-1.086;2022-08-21T05:05:34;12;8;
33264;PMS5003;31404;53.974;-1.086;2022-08-21T05:10:34;10;10;
33264;PMS5003;31404;53.974;-1.086;2022-08-21T05:15:34;7;7;
33264;PMS5003;31404;53.974;-1.086;2022-08-21T05:20:34;15;10;
33264;PMS5003;31404;53.974;-1.086;2022-08-21T05:25:36;12;11;
33264;PMS5003;31404;53.974;-1.086;2022-08-21T05:30:34;9;6;
33264;PMS5003;31404;53.974;-1.086;2022-08-21T05:35:34;9;9;
33264;PMS5003;31404;53.974;-1.086;2022-08-21T05:40:35;10;9;
33264;PMS5003;31404;53.974;-1.086;2022-08-21T05:45:34;13;9;
33264;PMS5003;31404;53.974;-1.086;2022-08-21T05:50:34;9;9;
33264;PMS5003;31404;53.974;-1.086;2022-08-21T05:55:35;9;9;
33264;PMS5003;31404;53.974;-1.086;2022-08-21T06:00:34;8;7;
33264;PMS5003;31404;53.974;-1.086;2022-08-21T06:05:34;12;11;
33264;PMS5003;31404;53.974;-1.086;2022-08-21T06:10:34;9;6;
33264;PMS5003;31404;53.974;-1.086;2022-08-21T06:15:35;8;8;
33264;PMS5003;31404;53.974;-1.086;2022-08-21T06:20:34;13;11;
33264;PMS5003;31404;53.974;-1.086;2022-08-21T06:25:34;9;7;
33264;PMS5003;31404;53.974;-1.086;2022-08-21T06:30:35;7;6;
33264;PMS5003;31404;53.974;-1.086;2022-08-21T06:35:34;10;9;
33264;PMS5003;31404;53.974;-1.086;2022-08-21T06:40:34;5;5;
33264;PMS5003;31404;53.974;-1.086;2022-08-21T06:45:34;7;4;
33264;PMS5003;31404;53.974;-1.086;2022-08-21T06:50:34;7;5;
33264;PMS5003;31404;53.974;-1.086;2022-08-21T06:55:34;6;6;
33264;PMS5003;31404;53.974;-1.086;2022-08-21T07:00:34;4;3;
33264;PMS5003;31404;53.974;-1.086;2022-08-21T07:05:34;5;4;
33264;PMS5003;31404;53.974;-1.086;2022-08-21T07:10:34;5;5;
33264;PMS5003;31404;53.974;-1.086;2022-08-21T07:15:34;7;6;
33264;PMS5003;31404;53.974;-1.086;2022-08-21T07:20:34;4;2;
33264;PMS5003;31404;53.974;-1.086;2022-08-21T07:25:34;2;2;
33264;PMS5003;31404;53.974;-1.086;2022-08-21T07:30:34;5;4;
33264;PMS5003;31404;53.974;-1.086;2022-08-21T07:35:35;4;3;
33264;PMS5003;31404;53.974;-1.086;2022-08-21T07:40:34;2;2;
33264;PMS5003;31404;53.974;-1.086;2022-08-21T07:45:34;4;4;
33264;PMS5003;31404;53.974;-1.086;2022-08-21T07:50:34;4;4;
33264;PMS5003;31404;53.974;-1.086;2022-08-21T07:55:34;5;3;
33264;PMS5003;31404;53.974;-1.086;2022-08-21T08:00:34;5;2;
33264;PMS5003;31404;53.974;-1.086;2022-08-21T08:05:34;6;5;
33264;PMS5003;31404;53.974;-1.086;2022-08-21T08:10:34;3;3;
33264;PMS5003;31404;53.974;-1.086;2022-08-21T08:15:35;4;4;
33264;PMS5003;31404;53.974;-1.086;2022-08-21T08:20:34;7;5;
33264;PMS5003;31404;53.974;-1.086;2022-08-21T08:25:34;6;4;
33264;PMS5003;31404;53.974;-1.086;2022-08-21T08:30:34;5;5;
33264;PMS5003;31404;53.974;-1.086;2022-08-21T08:35:34;7;5;
33264;PMS5003;31404;53.974;-1.086;2022-08-21T08:40:36;7;4;
33264;PMS5003;31404;53.974;-1.086;2022-08-21T08:45:36;5;3;
33264;PMS5003;31404;53.974;-1.086;2022-08-21T08:50:38;3;3;
33264;PMS5003;31404;53.974;-1.086;2022-08-21T08:55:35;5;3;
33264;PMS5003;31404;53.974;-1.086;2022-08-21T09:00:34;2;2;
33264;PMS5003;31404;53.974;-1.086;2022-08-21T09:05:38;2;2;
33264;PMS5003;31404;53.974;-1.086;2022-08-21T09:10:37;1;1;
33264;PMS5003;31404;53.974;-1.086;2022-08-21T09:15:35;1;1;
33264;PMS5003;31404;53.974;-1.086;2022-08-21T09:20:37;3;3;
33264;PMS5003;31404;53.974;-1.086;2022-08-21T09:25:37;1;1;
33264;PMS5003;31404;53.974;-1.086;2022-08-21T09:30:34;1;1;
33264;PMS5003;31404;53.974;-1.086;2022-08-21T09:35:34;4;2;
33264;PMS5003;31404;53.974;-1.086;2022-08-21T09:40:36;4;4;
33264;PMS5003;31404;53.974;-1.086;2022-08-21T09:45:34;4;2;
33264;PMS5003;31404;53.974;-1.086;2022-08-21T09:50:34;2;2;
33264;PMS5003;31404;53.974;-1.086;2022-08-21T09:55:38;4;2;
33264;PMS5003;31404;53.974;-1.086;2022-08-21T10:00:35;4;3;
33264;PMS5003;31404;53.974;-1.086;2022-08-21T10:05:34;2;2;
33264;PMS5003;31404;53.974;-1.086;2022-08-21T10:10:36;2;2;
33264;PMS5003;31404;53.974;-1.086;2022-08-21T10:15:38;3;3;
33264;PMS5003;31404;53.974;-1.086;2022-08-21T10:20:35;4;2;
33264;PMS5003;31404;53.974;-1.086;2022-08-21T10:25:37;2;2;
33264;PMS5003;31404;53.974;-1.086;2022-08-21T10:30:36;2;2;
33264;PMS5003;31404;53.974;-1.086;2022-08-21T10:35:35;3;3;
33264;PMS5003;31404;53.974;-1.086;2022-08-21T10:40:34;1;1;
33264;PMS5003;31404;53.974;-1.086;2022-08-21T10:45:38;2;1;
33264;PMS5003;31404;53.974;-1.086;2022-08-21T10:50:35;1;1;
33264;PMS5003;31404;53.974;-1.086;2022-08-21T10:55:36;2;2;
33264;PMS5003;31404;53.974;-1.086;2022-08-21T11:00:36;1;1;
33264;PMS5003;31404;53.974;-1.086;2022-08-21T11:05:35;1;1;
33264;PMS5003;31404;53.974;-1.086;2022-08-21T11:10:36;1;1;
33264;PMS5003;31404;53.974;-1.086;2022-08-21T11:15:36;2;2;
33264;PMS5003;31404;53.974;-1.086;2022-08-21T11:20:36;2;2;
33264;PMS5003;31404;53.974;-1.086;2022-08-21T11:25:35;2;2;
33264;PMS5003;31404;53.974;-1.086;2022-08-21T11:30:37;1;1;
33264;PMS5003;31404;53.974;-1.086;2022-08-21T11:35:35;3;2;
33264;PMS5003;31404;53.974;-1.086;2022-08-21T11:45:36;3;1;
33264;PMS5003;31404;53.974;-1.086;2022-08-21T11:50:34;1;1;
33264;PMS5003;31404;53.974;-1.086;2022-08-21T11:55:35;2;0;
33264;PMS5003;31404;53.974;-1.086;2022-08-21T12:00:36;2;2;
33264;PMS5003;31404;53.974;-1.086;2022-08-21T12:05:38;1;1;
33264;PMS5003;31404;53.974;-1.086;2022-08-21T12:10:36;2;0;
33264;PMS5003;31404;53.974;-1.086;2022-08-21T12:15:34;2;2;
33264;PMS5003;31404;53.974;-1.086;2022-08-21T12:20:37;5;1;
33264;PMS5003;31404;53.974;-1.086;2022-08-21T12:25:36;0;0;
33264;PMS5003;31404;53.974;-1.086;2022-08-21T12:30:35;2;1;
33264;PMS5003;31404;53.974;-1.086;2022-08-21T12:35:36;2;2;
33264;PMS5003;31404;53.974;-1.086;2022-08-21T12:40:37;1;1;
33264;PMS5003;31404;53.974;-1.086;2022-08-21T12:45:36;3;1;
33264;PMS5003;31404;53.974;-1.086;2022-08-21T12:50:35;1;1;
33264;PMS5003;31404;53.974;-1.086;2022-08-21T12:55:34;1;1;
33264;PMS5003;31404;53.974;-1.086;2022-08-21T13:00:34;1;1;
33264;PMS5003;31404;53.974;-1.086;2022-08-21T13:05:34;1;1;
33264;PMS5003;31404;53.974;-1.086;2022-08-21T13:10:34;1;1;
33264;PMS5003;31404;53.974;-1.086;2022-08-21T13:15:36;1;0;
33264;PMS5003;31404;53.974;-1.086;2022-08-21T13:20:37;0;0;
33264;PMS5003;31404;53.974;-1.086;2022-08-21T13:25:35;1;1;
33264;PMS5003;31404;53.974;-1.086;2022-08-21T13:30:34;2;0;
33264;PMS5003;31404;53.974;-1.086;2022-08-21T13:35:35;2;1;
33264;PMS5003;31404;53.974;-1.086;2022-08-21T13:45:34;0;0;
33264;PMS5003;31404;53.974;-1.086;2022-08-21T13:50:35;3;2;
33264;PMS5003;31404;53.974;-1.086;2022-08-21T13:55:35;0;0;
33264;PMS5003;31404;53.974;-1.086;2022-08-21T14:00:34;3;1;
33264;PMS5003;31404;53.974;-1.086;2022-08-21T14:05:35;0;0;
33264;PMS5003;31404;53.974;-1.086;2022-08-21T14:10:35;1;1;
33264;PMS5003;31404;53.974;-1.086;2022-08-21T14:15:34;1;1;
33264;PMS5003;31404;53.974;-1.086;2022-08-21T14:20:35;1;1;
33264;PMS5003;31404;53.974;-1.086;2022-08-21T14:30:35;0;0;
33264;PMS5003;31404;53.974;-1.086;2022-08-21T14:35:34;1;1;
33264;PMS5003;31404;53.974;-1.086;2022-08-21T14:40:34;0;0;
33264;PMS5003;31404;53.974;-1.086;2022-08-21T14:45:34;4;2;
33264;PMS5003;31404;53.974;-1.086;2022-08-21T14:50:34;0;0;
33264;PMS5003;31404;53.974;-1.086;2022-08-21T14:55:34;0;0;
33264;PMS5003;31404;53.974;-1.086;2022-08-21T15:00:34;1;1;
33264;PMS5003;31404;53.974;-1.086;2022-08-21T15:05:34;1;1;
33264;PMS5003;31404;53.974;-1.086;2022-08-21T15:10:34;0;0;
33264;PMS5003;31404;53.974;-1.086;2022-08-21T15:15:35;2;1;
33264;PMS5003;31404;53.974;-1.086;2022-08-21T15:20:34;0;0;
33264;PMS5003;31404;53.974;-1.086;2022-08-21T15:25:34;0;0;
33264;PMS5003;31404;53.974;-1.086;2022-08-21T15:30:34;0;0;
33264;PMS5003;31404;53.974;-1.086;2022-08-21T15:35:34;0;0;
33264;PMS5003;31404;53.974;-1.086;2022-08-21T15:40:34;1;1;
33264;PMS5003;31404;53.974;-1.086;2022-08-21T15:45:34;0;0;
33264;PMS5003;31404;53.974;-1.086;2022-08-21T15:50:34;0;0;
33264;PMS5003;31404;53.974;-1.086;2022-08-21T15:55:34;0;0;
33264;PMS5003;31404;53.974;-1.086;2022-08-21T16:00:34;1;1;
33264;PMS5003;31404;53.974;-1.086;2022-08-21T16:05:34;0;0;
33264;PMS5003;31404;53.974;-1.086;2022-08-21T16:10:35;2;2;
33264;PMS5003;31404;53.974;-1.086;2022-08-21T16:15:34;1;1;
33264;PMS5003;31404;53.974;-1.086;2022-08-21T16:20:34;1;1;
33264;PMS5003;31404;53.974;-1.086;2022-08-21T16:25:35;1;1;
33264;PMS5003;31404;53.974;-1.086;2022-08-21T16:30:34;2;0;
33264;PMS5003;31404;53.974;-1.086;2022-08-21T16:35:34;0;0;
33264;PMS5003;31404;53.974;-1.086;2022-08-21T16:40:34;0;0;
33264;PMS5003;31404;53.974;-1.086;2022-08-21T16:45:33;1;1;
33264;PMS5003;31404;53.974;-1.086;2022-08-21T16:50:34;0;0;
33264;PMS5003;31404;53.974;-1.086;2022-08-21T16:55:35;2;1;
33264;PMS5003;31404;53.974;-1.086;2022-08-21T17:00:34;0;0;
33264;PMS5003;31404;53.974;-1.086;2022-08-21T17:05:34;0;0;
33264;PMS5003;31404;53.974;-1.086;2022-08-21T17:10:34;0;0;
33264;PMS5003;31404;53.974;-1.086;2022-08-21T17:15:35;1;1;
33264;PMS5003;31404;53.974;-1.086;2022-08-21T17:20:34;1;1;
33264;PMS5003;31404;53.974;-1.086;2022-08-21T17:25:34;1;1;
33264;PMS5003;31404;53.974;-1.086;2022-08-21T17:30:34;1;1;
33264;PMS5003;31404;53.974;-1.086;2022-08-21T17:35:34;0;0;
33264;PMS5003;31404;53.974;-1.086;2022-08-21T17:40:34;1;1;
33264;PMS5003;31404;53.974;-1.086;2022-08-21T17:45:34;1;1;
33264;PMS5003;31404;53.974;-1.086;2022-08-21T17:50:34;0;0;
33264;PMS5003;31404;53.974;-1.086;2022-08-21T17:55:34;0;0;
33264;PMS5003;31404;53.974;-1.086;2022-08-21T18:00:34;0;0;
33264;PMS5003;31404;53.974;-1.086;2022-08-21T18:05:34;1;1;
33264;PMS5003;31404;53.974;-1.086;2022-08-21T18:10:34;2;1;
33264;PMS5003;31404;53.974;-1.086;2022-08-21T18:15:34;0;0;
33264;PMS5003;31404;53.974;-1.086;2022-08-21T18:20:34;0;0;
33264;PMS5003;31404;53.974;-1.086;2022-08-21T18:25:34;0;0;
33264;PMS5003;31404;53.974;-1.086;2022-08-21T18:30:35;0;0;
33264;PMS5003;31404;53.974;-1.086;2022-08-21T18:35:34;0;0;
33264;PMS5003;31404;53.974;-1.086;2022-08-21T18:40:36;1;1;
33264;PMS5003;31404;53.974;-1.086;2022-08-21T18:45:34;1;1;
33264;PMS5003;31404;53.974;-1.086;2022-08-21T18:50:34;2;2;
33264;PMS5003;31404;53.974;-1.086;2022-08-21T18:55:34;2;2;
33264;PMS5003;31404;53.974;-1.086;2022-08-21T19:00:35;1;1;
33264;PMS5003;31404;53.974;-1.086;2022-08-21T19:05:35;3;2;
33264;PMS5003;31404;53.974;-1.086;2022-08-21T19:10:34;1;1;
33264;PMS5003;31404;53.974;-1.086;2022-08-21T19:15:34;2;1;
33264;PMS5003;31404;53.974;-1.086;2022-08-21T19:20:34;1;1;
33264;PMS5003;31404;53.974;-1.086;2022-08-21T19:25:34;4;4;
33264;PMS5003;31404;53.974;-1.086;2022-08-21T19:30:35;5;5;
33264;PMS5003;31404;53.974;-1.086;2022-08-21T19:35:33;13;9;
33264;PMS5003;31404;53.974;-1.086;2022-08-21T19:40:34;2;2;
33264;PMS5003;31404;53.974;-1.086;2022-08-21T19:45:35;2;2;
33264;PMS5003;31404;53.974;-1.086;2022-08-21T19:50:34;4;3;
33264;PMS5003;31404;53.974;-1.086;2022-08-21T19:55:34;5;5;
33264;PMS5003;31404;53.974;-1.086;2022-08-21T20:00:34;4;4;
33264;PMS5003;31404;53.974;-1.086;2022-08-21T20:05:34;5;5;
33264;PMS5003;31404;53.974;-1.086;2022-08-21T20:10:34;13;13;
33264;PMS5003;31404;53.974;-1.086;2022-08-21T20:15:34;6;6;
33264;PMS5003;31404;53.974;-1.086;2022-08-21T20:20:34;6;4;
33264;PMS5003;31404;53.974;-1.086;2022-08-21T20:25:34;12;10;
33264;PMS5003;31404;53.974;-1.086;2022-08-21T20:30:33;25;20;
33264;PMS5003;31404;53.974;-1.086;2022-08-21T20:35:34;18;13;
33264;PMS5003;31404;53.974;-1.086;2022-08-21T20:40:34;13;11;
33264;PMS5003;31404;53.974;-1.086;2022-08-21T20:45:34;33;27;
33264;PMS5003;31404;53.974;-1.086;2022-08-21T20:50:35;33;26;
33264;PMS5003;31404;53.974;-1.086;2022-08-21T20:55:34;20;19;
33264;PMS5003;31404;53.974;-1.086;2022-08-21T21:00:36;15;11;
33264;PMS5003;31404;53.974;-1.086;2022-08-21T21:05:35;19;16;
33264;PMS5003;31404;53.974;-1.086;2022-08-21T21:10:35;32;28;
33264;PMS5003;31404;53.974;-1.086;2022-08-21T21:15:35;62;57;
33264;PMS5003;31404;53.974;-1.086;2022-08-21T21:20:36;23;19;
33264;PMS5003;31404;53.974;-1.086;2022-08-21T21:25:36;5;5;
33264;PMS5003;31404;53.974;-1.086;2022-08-21T21:30:35;7;5;
33264;PMS5003;31404;53.974;-1.086;2022-08-21T21:35:36;4;4;
33264;PMS5003;31404;53.974;-1.086;2022-08-21T21:40:38;3;3;
33264;PMS5003;31404;53.974;-1.086;2022-08-21T21:45:37;1;1;
33264;PMS5003;31404;53.974;-1.086;2022-08-21T21:50:39;2;2;
33264;PMS5003;31404;53.974;-1.086;2022-08-21T21:55:38;2;2;
33264;PMS5003;31404;53.974;-1.086;2022-08-21T22:00:35;3;2;
33264;PMS5003;31404;53.974;-1.086;2022-08-21T22:10:35;1;1;
33264;PMS5003;31404;53.974;-1.086;2022-08-21T22:15:35;3;3;
33264;PMS5003;31404;53.974;-1.086;2022-08-21T22:20:36;7;7;
33264;PMS5003;31404;53.974;-1.086;2022-08-21T22:25:35;7;5;
33264;PMS5003;31404;53.974;-1.086;2022-08-21T22:30:37;3;3;
33264;PMS5003;31404;53.974;-1.086;2022-08-21T22:35:34;2;2;
33264;PMS5003;31404;53.974;-1.086;2022-08-21T22:40:35;2;2;
33264;PMS5003;31404;53.974;-1.086;2022-08-21T22:45:49;1;1;
33264;PMS5003;31404;53.974;-1.086;2022-08-21T22:50:34;3;3;
33264;PMS5003;31404;53.974;-1.086;2022-08-21T22:55:36;4;2;
33264;PMS5003;31404;53.974;-1.086;2022-08-21T23:05:34;2;2;
33264;PMS5003;31404;53.974;-1.086;2022-08-21T23:10:37;0;0;
33264;PMS5003;31404;53.974;-1.086;2022-08-21T23:15:34;2;1;
33264;PMS5003;31404;53.974;-1.086;2022-08-21T23:20:36;2;2;
33264;PMS5003;31404;53.974;-1.086;2022-08-21T23:30:37;1;1;
33264;PMS5003;31404;53.974;-1.086;2022-08-21T23:35:38;1;1;
33264;PMS5003;31404;53.974;-1.086;2022-08-21T23:40:37;1;1;
33264;PMS5003;31404;53.974;-1.086;2022-08-21T23:45:36;2;2;
33264;PMS5003;31404;53.974;-1.086;2022-08-21T23:50:35;3;1;
33264;PMS5003;31404;53.974;-1.086;2022-08-21T23:55:37;2;0;
